Hauptseite
METAR-TAF:

METAR-TAF

Flughäfen :

Flughafen Hakodate

Hakodate, Japan

Breite: 41-46N, Länge: 140-49E, Höhe: 33 m

Beobachtung

Neuester Wetterbericht von vor 43 Minuten, um 18:00 UTC
Wind 8 kt aus Ost/Nordost
Temperatur 7°C
Luftfeuchtigkeit 81%
Luftdruck 1017 hPa
Sichtweite 10 km oder mehr

METAR: RJCH 221800Z AUTO 06008KT 9999 NSC 07/04 Q1017

Zeit: 03:43 (18:43 UTC)

Prognose

Neuester Wetterbericht von vor 1 Stunde und 34 Minuten, um 17:09 UTC
Gültige Prognose vom 22 um 18 UTC bis 24 um 00 UTC
Wind 13 kt aus Ost
Sichtweite 10 km oder mehr
Leicht bewölkt in der Höhe von 800 ft
Durchbrochene Bewölkung in der Höhe von 2500 ft

TAF: RJCH 221709Z 2218/2400 10013KT 9999 FEW008 BKN025

Wetterbeobachtungen und Prognosen von mehr als 4000 Flughäfen (METAR und TAF Bericht).

Die verfügbaren Stationen werden durch gelbe und rote Markierungen auf der Karte dargestellt.

Führen Sie die Maus auf sie, um den Namen der Station zu sehen.

Darauf klicken, um die Beobachtung von Wetterbeobachtungen und Prognosen zu sehen.

Um die Karte zu ändern : klicken Sie auf den grünen Tasten mit einem schwarzen Kreuz Zum Vergrößern, auf den grünen Button mit einem Gedankenstrich zu verkleinern, oder auf die grünen Pfeile für benachbarte Karten.


METAR-TAF: